Time;durP1;ratioP1;P1;durP2;ratioP2;P2;SDS_P1;SDS_P2;PMS_P1;PMS_P2;Temp;Humidity;BMP_temperature;BMP_pressure;BME280_temperature;BME280_humidity;BME280_pressure;Samples;Min_cycle;Max_cycle;Signal;HPM_P1;HPM_P2
2021/12/17 00:05:12;;;;;;;17.20;9.50;;;3.90;99.90;;;;;;5073948;28;20230;-81
2021/12/17 00:07:39;;;;;;;18.83;9.10;;;4.00;99.90;;;;;;5054619;28;20185;-79
2021/12/17 00:10:11;;;;;;;17.17;8.87;;;4.00;99.90;;;;;;5072479;28;20202;-79
2021/12/17 00:12:37;;;;;;;18.33;9.50;;;4.10;99.90;;;;;;5055410;28;20551;-80
2021/12/17 00:15:05;;;;;;;18.30;9.27;;;4.20;99.90;;;;;;5055969;28;20185;-79
2021/12/17 00:17:35;;;;;;;18.60;9.63;;;4.30;99.90;;;;;;5073398;28;20327;-80
2021/12/17 00:49:45;;;;;;;20.43;11.67;;;4.50;99.90;;;;;;5089053;28;20220;-79
2021/12/17 00:52:11;;;;;;;22.97;11.93;;;4.60;99.90;;;;;;5080236;28;20196;-82
2021/12/17 00:54:40;;;;;;;23.27;12.50;;;4.60;99.90;;;;;;5059198;28;20182;-82
2021/12/17 00:57:14;;;;;;;24.23;11.97;;;4.70;99.90;;;;;;5058073;28;20201;-82
2021/12/17 00:59:48;;;;;;;21.20;10.90;;;4.80;99.90;;;;;;5076232;28;20229;-80
2021/12/17 01:02:17;;;;;;;17.87;9.93;;;5.00;99.90;;;;;;5076343;28;20220;-80
2021/12/17 01:04:49;;;;;;;18.30;11.00;;;5.20;99.90;;;;;;5075581;28;20306;-82
2021/12/17 01:07:16;;;;;;;21.20;10.90;;;5.20;99.90;;;;;;5066369;28;20232;-79
2021/12/17 01:09:45;;;;;;;18.97;10.33;;;5.20;99.90;;;;;;5075347;28;20256;-79
2021/12/17 01:12:11;;;;;;;18.07;9.87;;;5.40;99.90;;;;;;5057133;28;20174;-79
2021/12/17 01:14:37;;;;;;;18.97;9.77;;;5.50;99.90;;;;;;5056563;28;20663;-81
2021/12/17 01:17:04;;;;;;;16.97;8.63;;;5.60;99.90;;;;;;5057370;28;20604;-79
2021/12/17 01:24:58;;;;;;;14.87;8.77;;;5.50;99.90;;;;;;5075368;28;20181;-82
2021/12/17 01:35:41;;;;;;;17.97;9.67;;;5.50;99.90;;;;;;5074171;28;20193;-81
2021/12/17 01:43:06;;;;;;;15.90;9.10;;;5.50;99.90;;;;;;5073180;28;20181;-81
2021/12/17 01:45:37;;;;;;;15.53;8.83;;;5.50;99.90;;;;;;5074268;28;20207;-81
2021/12/17 01:48:07;;;;;;;16.67;9.17;;;5.50;99.90;;;;;;5054929;28;20556;-81
2021/12/17 02:01:34;;;;;;;18.20;10.23;;;5.50;99.90;;;;;;5072936;28;20180;-80
2021/12/17 02:04:03;;;;;;;15.10;8.03;;;5.50;99.90;;;;;;5074193;28;20676;-80
2021/12/17 02:06:31;;;;;;;15.07;9.60;;;5.50;99.90;;;;;;5072800;28;20194;-81
2021/12/17 02:08:59;;;;;;;14.27;8.83;;;5.50;99.90;;;;;;5056315;28;20174;-81
2021/12/17 02:11:59;;;;;;;14.70;8.87;;;5.60;99.90;;;;;;5054843;28;20205;-81
2021/12/17 02:30:40;;;;;;;15.57;8.97;;;5.60;99.90;;;;;;5074032;28;20632;-81
2021/12/17 02:33:05;;;;;;;15.13;8.53;;;5.60;99.90;;;;;;5073948;28;20192;-81
2021/12/17 02:35:35;;;;;;;15.23;8.23;;;5.70;99.90;;;;;;5054868;28;20182;-80
2021/12/17 02:38:02;;;;;;;12.30;7.37;;;5.90;99.90;;;;;;5055229;28;20189;-81
2021/12/17 02:45:55;;;;;;;15.70;8.30;;;5.80;99.90;;;;;;5074002;28;20208;-81
2021/12/17 02:48:23;;;;;;;15.87;9.23;;;5.90;99.90;;;;;;5073295;28;20189;-81
2021/12/17 02:50:52;;;;;;;15.60;8.73;;;6.00;99.90;;;;;;5073443;28;20201;-80
2021/12/17 02:53:19;;;;;;;15.60;9.33;;;6.00;99.90;;;;;;5073375;28;20620;-81
2021/12/17 02:55:51;;;;;;;14.97;9.17;;;5.90;99.90;;;;;;5073250;28;20181;-81
2021/12/17 02:58:17;;;;;;;14.23;8.90;;;5.90;99.90;;;;;;5072162;28;20198;-79
2021/12/17 03:00:44;;;;;;;14.27;7.23;;;5.90;99.90;;;;;;5055323;28;20288;-81
2021/12/17 03:03:10;;;;;;;13.53;8.17;;;6.10;99.90;;;;;;5074044;28;20181;-80
2021/12/17 03:05:39;;;;;;;15.13;8.27;;;6.20;99.90;;;;;;5055248;28;20316;-80
2021/12/17 03:08:12;;;;;;;12.97;7.70;;;6.20;99.90;;;;;;5074326;28;20599;-79
2021/12/17 03:10:38;;;;;;;12.83;7.57;;;6.20;99.90;;;;;;5075733;28;20209;-81
2021/12/17 03:13:05;;;;;;;15.40;8.40;;;6.20;99.90;;;;;;5058987;28;20473;-80
2021/12/17 03:15:39;;;;;;;14.17;7.77;;;6.20;99.90;;;;;;5058771;28;20293;-79
2021/12/17 03:23:28;;;;;;;13.37;7.23;;;6.20;99.90;;;;;;5072893;28;20230;-81
2021/12/17 03:25:55;;;;;;;14.63;8.50;;;6.20;99.90;;;;;;5054945;28;20220;-79
2021/12/17 03:28:21;;;;;;;14.10;7.00;;;6.30;99.90;;;;;;5072727;28;20187;-81
2021/12/17 03:30:47;;;;;;;13.93;7.10;;;6.30;99.90;;;;;;5053204;28;20205;-81
2021/12/17 03:33:13;;;;;;;14.17;8.13;;;6.40;99.90;;;;;;5072506;28;20189;-81
2021/12/17 03:35:39;;;;;;;14.47;7.77;;;6.40;99.90;;;;;;5072925;28;20193;-80
2021/12/17 03:38:05;;;;;;;14.60;8.03;;;6.40;99.90;;;;;;5054081;28;20555;-79
2021/12/17 03:40:32;;;;;;;14.97;8.87;;;6.30;99.90;;;;;;5071747;28;20198;-80
2021/12/17 03:43:10;;;;;;;15.77;7.90;;;6.20;99.90;;;;;;5071356;28;20207;-81
2021/12/17 03:45:36;;;;;;;15.73;8.47;;;6.20;99.90;;;;;;5070999;28;20205;-81
2021/12/17 03:48:02;;;;;;;15.27;8.27;;;6.20;99.90;;;;;;5052523;28;20188;-80
2021/12/17 03:50:29;;;;;;;13.57;8.07;;;6.20;99.90;;;;;;5069120;28;20205;-80
2021/12/17 03:52:54;;;;;;;17.37;9.30;;;6.20;99.90;;;;;;5049940;28;20186;-80
2021/12/17 03:55:20;;;;;;;14.90;8.57;;;6.20;99.90;;;;;;5067931;28;20189;-80
2021/12/17 03:57:45;;;;;;;18.40;9.17;;;6.30;99.90;;;;;;5074424;28;20875;-80
2021/12/17 04:00:13;;;;;;;16.27;9.67;;;6.30;99.90;;;;;;5071990;28;20221;-80
2021/12/17 04:02:38;;;;;;;18.47;10.47;;;6.30;99.90;;;;;;5074310;28;20185;-81
2021/12/17 04:05:04;;;;;;;17.43;9.77;;;6.30;99.90;;;;;;5074753;28;20249;-80
2021/12/17 04:07:30;;;;;;;18.47;10.47;;;6.40;99.90;;;;;;5073893;28;20237;-80
2021/12/17 04:09:56;;;;;;;18.90;10.17;;;6.30;99.90;;;;;;5074951;28;20295;-81
2021/12/17 04:12:31;;;;;;;16.20;10.17;;;6.20;99.90;;;;;;5075758;28;20209;-81
2021/12/17 04:14:57;;;;;;;20.43;10.47;;;6.30;99.90;;;;;;5056756;28;20176;-80
2021/12/17 04:17:26;;;;;;;18.37;10.47;;;6.30;99.90;;;;;;5075420;28;20264;-80
2021/12/17 04:19:51;;;;;;;17.10;9.63;;;6.40;99.90;;;;;;5054313;28;20225;-80
2021/12/17 04:22:17;;;;;;;18.53;10.37;;;6.30;99.90;;;;;;5056641;28;20975;-81
2021/12/17 04:24:43;;;;;;;15.20;9.87;;;6.30;99.90;;;;;;5056687;28;20194;-81
2021/12/17 04:27:09;;;;;;;17.63;10.17;;;6.30;99.90;;;;;;5056461;28;20201;-80
2021/12/17 04:29:41;;;;;;;19.53;10.70;;;6.30;99.90;;;;;;5074440;28;20271;-81
2021/12/17 04:32:07;;;;;;;22.43;12.57;;;6.30;99.90;;;;;;5073232;28;20209;-80
2021/12/17 04:34:33;;;;;;;17.50;10.07;;;6.40;99.90;;;;;;5074623;28;20185;-81
2021/12/17 04:36:58;;;;;;;19.53;10.03;;;6.40;99.90;;;;;;5074456;28;20208;-78
2021/12/17 04:39:25;;;;;;;18.87;9.87;;;6.50;99.90;;;;;;5055456;28;20201;-80
2021/12/17 04:44:26;;;;;;;19.13;11.03;;;6.40;99.90;;;;;;5074608;28;20280;-81
2021/12/17 04:57:35;;;;;;;19.30;10.13;;;6.30;99.90;;;;;;5074026;28;20185;-81
2021/12/17 05:00:08;;;;;;;16.07;9.67;;;6.30;99.90;;;;;;5073149;28;20354;-81
2021/12/17 05:02:39;;;;;;;20.37;10.33;;;6.30;99.90;;;;;;5073484;28;20213;-81
2021/12/17 05:05:08;;;;;;;17.60;10.13;;;6.30;99.90;;;;;;5055703;28;20194;-80
2021/12/17 05:07:37;;;;;;;19.90;10.70;;;6.30;99.90;;;;;;5054281;28;20186;-80
2021/12/17 05:10:15;;;;;;;20.53;10.07;;;6.30;99.90;;;;;;5052331;28;20216;-78
2021/12/17 05:18:24;;;;;;;21.50;10.73;;;6.40;99.90;;;;;;5070133;28;20238;-80
2021/12/17 05:20:55;;;;;;;19.83;10.60;;;6.40;99.90;;;;;;5052379;28;20588;-81
2021/12/17 05:23:27;;;;;;;17.10;9.83;;;6.40;99.90;;;;;;5053050;28;20196;-80
2021/12/17 05:25:53;;;;;;;21.30;11.03;;;6.40;99.90;;;;;;5069820;28;20246;-81
2021/12/17 05:28:19;;;;;;;17.90;10.50;;;6.40;99.90;;;;;;5051817;28;20268;-81
2021/12/17 05:30:46;;;;;;;18.97;10.73;;;6.40;99.90;;;;;;5051597;28;20251;-79
2021/12/17 05:33:20;;;;;;;18.10;10.17;;;6.40;99.90;;;;;;5069689;28;20177;-81
2021/12/17 05:35:47;;;;;;;18.03;10.40;;;6.40;99.90;;;;;;5051984;28;20647;-81
2021/12/17 05:38:14;;;;;;;18.33;10.27;;;6.40;99.90;;;;;;5052016;28;20186;-80
2021/12/17 05:40:41;;;;;;;18.70;10.03;;;6.30;99.90;;;;;;5052235;28;20205;-81
2021/12/17 05:43:07;;;;;;;19.90;12.00;;;6.30;99.90;;;;;;5052296;28;20545;-80
2021/12/17 05:45:36;;;;;;;18.17;10.60;;;6.30;99.90;;;;;;5052182;28;20197;-79
2021/12/17 05:48:10;;;;;;;18.93;10.53;;;6.30;99.90;;;;;;5070050;28;20227;-80
2021/12/17 05:50:38;;;;;;;17.87;10.13;;;6.30;99.90;;;;;;5051548;28;20209;-81
2021/12/17 05:53:05;;;;;;;18.13;9.60;;;6.40;99.90;;;;;;5051683;28;20181;-81
2021/12/17 05:55:31;;;;;;;17.37;10.27;;;6.40;99.90;;;;;;5070430;28;20264;-81
2021/12/17 05:57:57;;;;;;;19.13;10.37;;;6.50;99.90;;;;;;5051461;28;20732;-81
2021/12/17 06:00:24;;;;;;;20.07;9.83;;;6.40;99.90;;;;;;5051729;28;20358;-81
2021/12/17 06:02:50;;;;;;;15.30;9.57;;;6.40;99.90;;;;;;5050918;28;20182;-80
2021/12/17 06:05:17;;;;;;;17.33;9.40;;;6.40;99.90;;;;;;5050658;28;20192;-81
2021/12/17 06:07:42;;;;;;;17.67;10.27;;;6.40;99.90;;;;;;5051351;28;20185;-81
2021/12/17 06:10:09;;;;;;;15.47;8.97;;;6.30;99.90;;;;;;5050704;28;20193;-80
2021/12/17 06:12:36;;;;;;;18.23;9.73;;;6.30;99.90;;;;;;5068902;28;20181;-81
2021/12/17 06:15:07;;;;;;;19.17;10.47;;;6.30;99.90;;;;;;5051591;28;20250;-81
2021/12/17 06:17:33;;;;;;;18.30;9.17;;;6.40;99.90;;;;;;5051221;28;20192;-79
2021/12/17 06:19:58;;;;;;;17.63;10.00;;;6.40;99.90;;;;;;5069286;28;20232;-80
2021/12/17 06:22:24;;;;;;;17.97;9.70;;;6.40;99.90;;;;;;5051240;28;20251;-80
2021/12/17 06:24:50;;;;;;;19.30;10.03;;;6.40;99.90;;;;;;5050938;28;20822;-81
2021/12/17 06:27:19;;;;;;;19.23;9.77;;;6.30;99.90;;;;;;5050738;28;20209;-81
2021/12/17 06:29:45;;;;;;;17.47;9.87;;;6.30;99.90;;;;;;5068173;28;20207;-80
2021/12/17 06:32:11;;;;;;;18.97;9.87;;;6.40;99.90;;;;;;5050351;28;20174;-82
2021/12/17 06:34:38;;;;;;;18.33;10.07;;;6.40;99.90;;;;;;5068358;28;20185;-79
2021/12/17 06:37:04;;;;;;;17.97;9.50;;;6.40;99.90;;;;;;5067952;28;20204;-79
2021/12/17 06:39:30;;;;;;;20.10;10.10;;;6.30;99.90;;;;;;5067540;28;20247;-78
2021/12/17 06:41:56;;;;;;;17.03;10.13;;;6.30;99.90;;;;;;5049835;28;20223;-80
2021/12/17 06:44:24;;;;;;;20.57;10.10;;;6.30;99.90;;;;;;5052842;28;20243;-79
2021/12/17 07:34:20;;;;;;;33.10;16.27;;;6.30;99.90;;;;;;5072233;28;20606;-80
2021/12/17 07:39:17;;;;;;;28.70;13.63;;;6.40;99.90;;;;;;5072060;28;20207;-79
2021/12/17 07:41:44;;;;;;;21.73;10.73;;;6.40;99.90;;;;;;5053208;28;20681;-79
2021/12/17 07:44:10;;;;;;;22.53;11.50;;;6.50;99.90;;;;;;5053407;28;20184;-79
2021/12/17 07:46:36;;;;;;;21.20;10.27;;;6.50;99.90;;;;;;5069038;28;20205;-78
2021/12/17 07:49:02;;;;;;;20.60;10.93;;;6.50;99.90;;;;;;5067917;28;20223;-80
2021/12/17 07:51:27;;;;;;;25.33;10.97;;;6.50;99.90;;;;;;5067837;28;20220;-79
2021/12/17 07:53:54;;;;;;;19.67;9.90;;;6.50;99.90;;;;;;5056666;28;20228;-79
2021/12/17 07:56:26;;;;;;;21.63;10.90;;;6.60;99.90;;;;;;5055242;28;20197;-80
2021/12/17 07:58:52;;;;;;;20.83;11.37;;;6.60;99.90;;;;;;5072725;28;20198;-80
2021/12/17 08:01:18;;;;;;;26.60;13.10;;;6.60;99.90;;;;;;5055740;28;20205;-80
2021/12/17 08:03:43;;;;;;;20.83;11.70;;;6.60;99.90;;;;;;5054700;28;20770;-80
2021/12/17 08:06:09;;;;;;;22.60;10.80;;;6.60;99.90;;;;;;5064205;28;20205;-80
2021/12/17 08:08:35;;;;;;;23.03;11.00;;;6.60;99.90;;;;;;5055860;28;20182;-79
2021/12/17 08:11:01;;;;;;;24.53;12.33;;;6.60;99.90;;;;;;5073206;28;20193;-79
2021/12/17 08:13:31;;;;;;;26.33;12.63;;;6.60;99.90;;;;;;5074488;28;20186;-80
2021/12/17 08:32:02;;;;;;;21.27;9.90;;;6.80;99.90;;;;;;5065289;28;20205;-79
2021/12/17 08:34:28;;;;;;;22.00;10.10;;;6.80;99.90;;;;;;5064328;28;20205;-79
2021/12/17 08:36:54;;;;;;;27.20;12.30;;;6.80;99.90;;;;;;5047406;28;20217;-79
2021/12/17 08:39:20;;;;;;;22.27;10.43;;;6.80;99.90;;;;;;5047067;28;20969;-80
2021/12/17 08:41:50;;;;;;;21.80;8.97;;;6.80;99.90;;;;;;5047895;28;20178;-81
2021/12/17 08:44:16;;;;;;;18.93;8.27;;;6.90;99.90;;;;;;5057863;28;20658;-84
2021/12/17 08:46:42;;;;;;;18.27;7.93;;;6.90;99.90;;;;;;5046403;28;20197;-81
2021/12/17 08:49:09;;;;;;;21.57;8.57;;;6.90;99.90;;;;;;5066588;28;20330;-79
2021/12/17 08:51:35;;;;;;;15.97;6.80;;;6.90;99.90;;;;;;5047138;28;20184;-81
2021/12/17 08:54:01;;;;;;;14.70;6.83;;;6.90;99.90;;;;;;5057118;28;20178;-81
2021/12/17 08:56:36;;;;;;;13.30;5.77;;;6.90;99.90;;;;;;5065369;28;20212;-79
2021/12/17 08:59:05;;;;;;;10.67;5.37;;;7.00;99.90;;;;;;5056756;28;20204;-81
2021/12/17 09:01:30;;;;;;;13.03;5.83;;;7.00;99.90;;;;;;5055732;28;20690;-79
2021/12/17 09:03:57;;;;;;;11.00;5.50;;;7.00;99.90;;;;;;5047196;28;20189;-77
2021/12/17 09:06:26;;;;;;;12.57;5.83;;;7.00;99.90;;;;;;5064677;28;20711;-79
2021/12/17 09:08:54;;;;;;;11.47;5.50;;;6.90;99.90;;;;;;5047577;28;20189;-80
2021/12/17 09:11:24;;;;;;;10.47;5.33;;;6.90;99.90;;;;;;5047795;28;20624;-79
2021/12/17 09:13:52;;;;;;;10.77;5.03;;;7.00;99.90;;;;;;5057740;28;20177;-78
2021/12/17 09:16:20;;;;;;;10.40;5.00;;;6.90;99.90;;;;;;5047815;28;20262;-78
2021/12/17 09:18:49;;;;;;;10.87;5.20;;;6.90;99.90;;;;;;5045969;28;20196;-82
2021/12/17 09:21:16;;;;;;;12.40;5.43;;;7.00;99.90;;;;;;5065275;28;20224;-80
2021/12/17 09:23:42;;;;;;;11.33;4.83;;;6.90;99.90;;;;;;5048501;28;20992;-78
2021/12/17 09:26:10;;;;;;;10.47;4.77;;;7.00;99.90;;;;;;5048884;28;20601;-77
2021/12/17 09:28:35;;;;;;;10.57;4.80;;;7.00;99.90;;;;;;5057144;28;20202;-79
2021/12/17 09:31:01;;;;;;;9.83;5.00;;;7.10;99.90;;;;;;5047500;28;20205;-80
2021/12/17 09:33:26;;;;;;;14.07;5.50;;;7.30;99.90;;;;;;5049028;28;20269;-78
2021/12/17 09:35:52;;;;;;;9.57;4.87;;;7.30;99.90;;;;;;5048523;28;21111;-81
2021/12/17 09:38:19;;;;;;;8.53;4.80;;;7.20;99.90;;;;;;5049656;28;20181;-80
2021/12/17 09:40:45;;;;;;;11.10;5.13;;;7.10;99.90;;;;;;5066704;28;20213;-78
2021/12/17 09:43:14;;;;;;;7.37;4.07;;;7.10;99.90;;;;;;5045880;28;20178;-78
2021/12/17 09:45:40;;;;;;;9.40;4.10;;;7.10;99.90;;;;;;5042898;28;20698;-78
2021/12/17 09:48:05;;;;;;;9.17;3.97;;;7.10;99.90;;;;;;5039709;28;20202;-79
2021/12/17 09:50:31;;;;;;;6.67;3.83;;;7.10;99.90;;;;;;5043117;28;20205;-82
2021/12/17 09:52:57;;;;;;;6.87;3.87;;;7.10;99.90;;;;;;5063084;28;20174;-81
2021/12/17 09:55:23;;;;;;;6.73;3.50;;;7.10;99.90;;;;;;5046975;28;20173;-77
2021/12/17 09:57:49;;;;;;;6.87;4.13;;;7.20;99.90;;;;;;5047267;28;21237;-79
2021/12/17 10:00:21;;;;;;;6.77;3.87;;;7.20;99.90;;;;;;5065105;28;20221;-77
2021/12/17 10:02:48;;;;;;;7.83;4.03;;;7.30;99.90;;;;;;5065115;28;20182;-79
2021/12/17 10:05:20;;;;;;;4.33;3.13;;;7.40;99.90;;;;;;5047048;28;20175;-79
2021/12/17 10:07:51;;;;;;;7.23;3.97;;;7.30;99.90;;;;;;5046100;28;20280;-80
2021/12/17 10:10:17;;;;;;;6.30;3.90;;;7.30;99.90;;;;;;5044676;28;20679;-80
2021/12/17 10:12:44;;;;;;;7.93;5.20;;;7.20;99.90;;;;;;5065366;28;20219;-81
2021/12/17 10:15:20;;;;;;;7.47;5.10;;;7.30;99.90;;;;;;5042127;28;21042;-77
2021/12/17 10:17:54;;;;;;;9.33;4.93;;;7.40;99.90;;;;;;5044518;28;20180;-77
2021/12/17 10:20:22;;;;;;;6.60;4.20;;;7.30;99.90;;;;;;5044881;28;20219;-79
2021/12/17 10:23:04;;;;;;;7.00;5.00;;;7.40;99.90;;;;;;5063146;28;20264;-79
2021/12/17 10:25:31;;;;;;;6.23;4.60;;;7.40;99.90;;;;;;5063035;28;20234;-78
2021/12/17 10:28:00;;;;;;;5.47;3.50;;;7.50;99.90;;;;;;5044441;28;20239;-79
2021/12/17 10:30:27;;;;;;;5.53;3.60;;;7.60;99.90;;;;;;5062127;28;20247;-78
2021/12/17 10:32:57;;;;;;;6.17;3.63;;;7.60;99.90;;;;;;5046411;28;21191;-79
2021/12/17 10:35:30;;;;;;;9.40;5.57;;;7.70;99.90;;;;;;5046282;28;20260;-78
2021/12/17 10:38:03;;;;;;;14.53;9.13;;;7.70;99.90;;;;;;5061573;28;20452;-78
2021/12/17 10:41:04;;;;;;;7.80;4.30;;;7.70;99.90;;;;;;5042969;28;20201;-78
2021/12/17 10:43:38;;;;;;;5.90;3.53;;;7.70;99.90;;;;;;5042281;28;20288;-77
2021/12/17 10:46:24;;;;;;;4.93;3.13;;;7.70;99.90;;;;;;5045586;28;20286;-79
2021/12/17 10:48:55;;;;;;;5.80;3.30;;;7.70;99.90;;;;;;5063675;28;20257;-78
2021/12/17 10:51:45;;;;;;;4.93;3.43;;;7.60;99.90;;;;;;5045870;28;20254;-77
2021/12/17 10:54:16;;;;;;;3.93;3.13;;;7.60;99.90;;;;;;5046111;28;20170;-79
2021/12/17 10:56:51;;;;;;;5.33;3.30;;;7.70;99.90;;;;;;5063760;28;20182;-79
2021/12/17 10:59:22;;;;;;;3.67;2.70;;;7.70;99.90;;;;;;5063568;28;20204;-77
2021/12/17 11:01:59;;;;;;;4.07;2.53;;;7.70;99.90;;;;;;5045356;28;20224;-78
2021/12/17 11:04:32;;;;;;;5.13;3.33;;;7.80;99.90;;;;;;5063868;28;20602;-76
2021/12/17 11:07:01;;;;;;;5.37;3.20;;;7.80;99.90;;;;;;5044938;28;20634;-78
2021/12/17 11:09:34;;;;;;;6.57;3.50;;;7.80;99.90;;;;;;5062840;28;20198;-79
2021/12/17 11:12:20;;;;;;;6.03;3.00;;;7.80;99.90;;;;;;5045351;28;20639;-79
2021/12/17 11:14:48;;;;;;;5.33;3.30;;;7.70;99.90;;;;;;5063160;28;21208;-77
2021/12/17 11:17:15;;;;;;;6.43;4.10;;;7.80;99.90;;;;;;5045377;28;20185;-78
2021/12/17 11:19:42;;;;;;;5.97;4.07;;;7.80;99.90;;;;;;5062259;28;20213;-79
2021/12/17 11:22:09;;;;;;;5.93;4.30;;;7.80;99.90;;;;;;5045346;28;20184;-78
2021/12/17 11:24:36;;;;;;;5.37;3.40;;;7.80;99.90;;;;;;5045505;28;20212;-80
2021/12/17 11:27:03;;;;;;;6.00;3.90;;;7.80;99.90;;;;;;5062505;28;20255;-80
2021/12/17 11:29:30;;;;;;;6.60;3.70;;;7.80;99.90;;;;;;5062997;28;20195;-79
2021/12/17 11:31:59;;;;;;;6.37;3.83;;;7.80;99.90;;;;;;5063803;28;20177;-79
2021/12/17 11:34:25;;;;;;;4.30;2.77;;;7.80;99.90;;;;;;5055525;28;20607;-79
2021/12/17 11:36:53;;;;;;;4.77;3.67;;;7.90;99.90;;;;;;5048672;28;20186;-78
2021/12/17 11:39:24;;;;;;;3.27;2.53;;;7.80;99.90;;;;;;5067128;28;20615;-78
2021/12/17 11:42:16;;;;;;;3.07;2.30;;;7.90;99.90;;;;;;5067363;28;20195;-79
2021/12/17 11:44:51;;;;;;;4.17;2.47;;;7.90;99.90;;;;;;5049735;28;20190;-79
2021/12/17 11:47:16;;;;;;;4.93;2.40;;;7.90;99.90;;;;;;5067481;28;20215;-80
2021/12/17 11:50:05;;;;;;;3.40;2.43;;;7.90;99.90;;;;;;5066859;28;20205;-81
2021/12/17 11:52:41;;;;;;;2.87;2.10;;;7.90;99.90;;;;;;5057438;28;20621;-78
2021/12/17 11:55:30;;;;;;;4.57;3.43;;;7.90;99.90;;;;;;5049124;28;20178;-77
2021/12/17 11:57:58;;;;;;;3.67;2.70;;;7.90;99.90;;;;;;5049745;28;20641;-78
2021/12/17 12:00:30;;;;;;;3.93;2.70;;;7.80;99.90;;;;;;5067783;28;20208;-77
2021/12/17 12:03:21;;;;;;;4.07;2.57;;;7.80;99.90;;;;;;5057607;28;20180;-76
2021/12/17 12:05:49;;;;;;;5.33;3.47;;;7.70;99.90;;;;;;5067033;28;20205;-82
2021/12/17 12:08:25;;;;;;;5.33;2.57;;;7.70;99.90;;;;;;5047583;28;20185;-78
2021/12/17 12:11:06;;;;;;;4.40;2.80;;;7.60;99.90;;;;;;5066004;28;20235;-79
2021/12/17 12:13:44;;;;;;;6.57;3.07;;;7.60;99.90;;;;;;5067328;28;20176;-79
2021/12/17 12:16:21;;;;;;;3.80;2.90;;;7.60;99.90;;;;;;5047887;28;20177;-79
2021/12/17 12:18:53;;;;;;;4.93;2.90;;;7.50;99.90;;;;;;5067011;28;20208;-79
2021/12/17 12:21:24;;;;;;;4.03;2.93;;;7.50;99.90;;;;;;5046765;28;20263;-77
2021/12/17 12:23:56;;;;;;;8.17;3.50;;;7.40;99.90;;;;;;5066405;28;20189;-78
2021/12/17 12:26:32;;;;;;;4.93;2.47;;;7.40;99.90;;;;;;5066288;28;20210;-79
2021/12/17 12:29:06;;;;;;;3.63;2.50;;;7.30;99.90;;;;;;5058148;28;20177;-80
2021/12/17 12:31:37;;;;;;;2.93;2.43;;;7.30;99.90;;;;;;5044387;28;20174;-79
2021/12/17 12:34:06;;;;;;;4.23;3.20;;;7.30;99.90;;;;;;5064844;28;20546;-79
2021/12/17 12:36:56;;;;;;;4.63;2.80;;;7.30;99.90;;;;;;5064646;28;20227;-79
2021/12/17 12:39:35;;;;;;;4.13;2.50;;;7.20;99.90;;;;;;5047720;28;20676;-78
2021/12/17 12:42:17;;;;;;;3.23;2.00;;;7.30;99.90;;;;;;5065994;28;20170;-79
2021/12/17 12:44:42;;;;;;;5.40;3.20;;;7.20;99.90;;;;;;5067346;28;20197;-79
2021/12/17 12:47:11;;;;;;;5.40;3.50;;;7.20;99.90;;;;;;5055853;28;20677;-78
2021/12/17 12:49:59;;;;;;;4.37;3.30;;;7.20;99.90;;;;;;5048372;28;20212;-78
2021/12/17 12:52:33;;;;;;;5.07;2.93;;;7.10;99.90;;;;;;5047901;28;20224;-77
2021/12/17 12:55:12;;;;;;;5.07;3.60;;;7.20;99.90;;;;;;5065656;28;20300;-78
2021/12/17 12:57:40;;;;;;;6.33;3.60;;;7.20;99.90;;;;;;5065968;28;20192;-78
2021/12/17 13:00:29;;;;;;;4.07;2.53;;;7.10;99.90;;;;;;5047939;28;20312;-79
2021/12/17 13:02:59;;;;;;;4.13;2.33;;;7.20;99.90;;;;;;5048341;28;20178;-78
2021/12/17 13:05:25;;;;;;;3.83;2.23;;;7.20;99.90;;;;;;5055475;28;20192;-77
2021/12/17 13:07:58;;;;;;;4.97;3.63;;;7.20;99.90;;;;;;5063706;28;20210;-77
2021/12/17 13:10:26;;;;;;;7.60;3.60;;;7.20;99.90;;;;;;5061010;28;20203;-78
2021/12/17 13:13:03;;;;;;;4.07;2.43;;;7.20;99.90;;;;;;5042228;28;20178;-77
2021/12/17 13:21:02;;;;;;;5.70;3.20;;;7.20;99.90;;;;;;5063927;28;20922;-78
2021/12/17 13:23:31;;;;;;;3.83;2.40;;;7.20;99.90;;;;;;5045998;28;20181;-78
2021/12/17 13:26:08;;;;;;;4.00;2.80;;;7.20;99.90;;;;;;5063396;28;20272;-77
2021/12/17 13:28:52;;;;;;;4.73;2.53;;;7.20;99.90;;;;;;5046010;28;20179;-78
2021/12/17 13:31:46;;;;;;;4.13;2.57;;;7.10;99.90;;;;;;5046135;28;20197;-77
2021/12/17 13:34:29;;;;;;;3.03;2.30;;;7.10;99.90;;;;;;5045826;28;20178;-76
2021/12/17 13:37:16;;;;;;;4.53;2.33;;;7.10;99.90;;;;;;5063720;28;20216;-75
2021/12/17 13:39:48;;;;;;;6.93;2.23;;;7.10;99.90;;;;;;5062659;28;20279;-75
2021/12/17 13:42:19;;;;;;;3.97;2.50;;;7.10;99.90;;;;;;5046216;28;20607;-78
2021/12/17 13:45:08;;;;;;;3.17;2.10;;;7.00;99.90;;;;;;5045835;28;20182;-78
2021/12/17 13:47:42;;;;;;;2.93;1.97;;;7.10;99.90;;;;;;5032468;28;20533;-80
2021/12/17 13:50:12;;;;;;;2.80;1.97;;;7.10;99.90;;;;;;5045129;28;20225;-78
2021/12/17 13:52:59;;;;;;;5.60;2.20;;;7.10;99.90;;;;;;5044587;28;20173;-77
2021/12/17 13:55:35;;;;;;;6.00;2.57;;;7.10;99.90;;;;;;5063372;28;20177;-76
2021/12/17 13:58:07;;;;;;;3.27;2.23;;;7.10;99.90;;;;;;5063093;28;20173;-79
2021/12/17 14:00:36;;;;;;;2.73;1.80;;;7.10;99.90;;;;;;5043943;28;20562;-79
2021/12/17 14:03:02;;;;;;;3.50;1.90;;;7.10;99.90;;;;;;5037196;28;20181;-78
2021/12/17 14:05:49;;;;;;;3.57;2.53;;;7.20;99.90;;;;;;5060553;28;20188;-78
2021/12/17 14:08:19;;;;;;;5.07;3.00;;;7.20;99.90;;;;;;5044639;28;20985;-78
2021/12/17 14:10:47;;;;;;;4.33;2.10;;;7.20;99.90;;;;;;5043761;28;20533;-78
2021/12/17 14:13:19;;;;;;;7.60;3.17;;;7.10;99.90;;;;;;5045741;28;20174;-79
2021/12/17 14:15:46;;;;;;;3.00;2.40;;;7.10;99.90;;;;;;5045591;28;20189;-81
2021/12/17 14:18:16;;;;;;;5.10;3.00;;;7.10;99.90;;;;;;5064287;28;20689;-79
2021/12/17 14:20:48;;;;;;;4.37;2.70;;;7.00;99.90;;;;;;5043864;28;20214;-79
2021/12/17 14:23:18;;;;;;;5.17;3.00;;;7.00;99.90;;;;;;5043683;28;20170;-77
2021/12/17 14:25:45;;;;;;;4.57;2.80;;;7.00;99.90;;;;;;5062365;28;20188;-78
2021/12/17 14:28:20;;;;;;;4.77;3.10;;;6.90;99.90;;;;;;5046094;28;20268;-80
2021/12/17 14:30:56;;;;;;;5.60;3.43;;;6.90;99.90;;;;;;5063782;28;20219;-80
2021/12/17 14:33:28;;;;;;;4.37;3.03;;;6.90;99.90;;;;;;5064502;28;20180;-78
2021/12/17 14:36:14;;;;;;;4.53;3.87;;;6.90;99.90;;;;;;5046304;28;20308;-79
2021/12/17 14:38:48;;;;;;;5.93;3.17;;;6.90;99.90;;;;;;5065101;28;20234;-80
2021/12/17 14:41:24;;;;;;;7.20;4.43;;;6.90;99.90;;;;;;5048343;28;20212;-81
2021/12/17 14:44:00;;;;;;;5.47;3.70;;;6.90;99.90;;;;;;5049312;28;20189;-80
2021/12/17 14:46:32;;;;;;;5.97;3.70;;;6.90;99.90;;;;;;5061824;28;20683;-80
2021/12/17 14:57:13;;;;;;;5.20;3.70;;;6.80;99.90;;;;;;5064591;28;20174;-79
2021/12/17 15:00:50;;;;;;;6.97;4.33;;;6.70;99.90;;;;;;5058087;28;20574;-78
2021/12/17 15:03:23;;;;;;;7.10;3.60;;;6.70;99.90;;;;;;5038064;28;20626;-79
2021/12/17 15:05:50;;;;;;;7.93;4.73;;;6.70;99.90;;;;;;5065086;28;20598;-78
2021/12/17 15:08:16;;;;;;;7.93;4.57;;;6.70;99.90;;;;;;5068047;28;20263;-77
2021/12/17 15:10:42;;;;;;;8.37;4.43;;;6.80;99.90;;;;;;5062784;28;20269;-77
2021/12/17 15:13:08;;;;;;;7.63;4.33;;;6.70;99.90;;;;;;5048061;28;20182;-80
2021/12/17 15:15:37;;;;;;;10.10;5.17;;;6.60;99.90;;;;;;5037255;28;20204;-78
2021/12/17 15:18:15;;;;;;;7.70;4.63;;;6.60;99.90;;;;;;5051312;28;20230;-79
2021/12/17 15:20:43;;;;;;;9.30;6.17;;;6.60;99.90;;;;;;5067197;28;20739;-81
2021/12/17 15:23:08;;;;;;;7.67;5.07;;;6.50;99.90;;;;;;5067151;28;20268;-78
2021/12/17 15:25:38;;;;;;;7.70;4.27;;;6.60;99.90;;;;;;5066397;28;20256;-78
2021/12/17 15:28:05;;;;;;;8.07;4.93;;;6.70;99.90;;;;;;5049482;28;20174;-79
2021/12/17 15:30:34;;;;;;;5.77;4.00;;;6.60;99.90;;;;;;5049569;28;20202;-79
2021/12/17 15:33:00;;;;;;;7.10;4.40;;;6.60;99.90;;;;;;5066999;28;20201;-79
2021/12/17 15:35:27;;;;;;;7.13;4.13;;;6.60;99.90;;;;;;5048566;28;20690;-79
2021/12/17 15:37:54;;;;;;;6.93;3.87;;;6.60;99.90;;;;;;5068039;28;20276;-78
2021/12/17 15:40:21;;;;;;;8.40;5.17;;;6.60;99.90;;;;;;5064883;28;20210;-79
2021/12/17 15:42:48;;;;;;;7.50;4.33;;;6.60;99.90;;;;;;5068101;28;20190;-79
2021/12/17 15:45:15;;;;;;;5.47;3.57;;;6.60;99.90;;;;;;5050873;28;20182;-80
2021/12/17 15:47:40;;;;;;;7.37;4.27;;;6.70;99.90;;;;;;5067521;28;20270;-79
2021/12/17 15:50:09;;;;;;;7.40;4.77;;;6.60;99.90;;;;;;5061955;28;20197;-80
2021/12/17 15:52:36;;;;;;;7.40;4.43;;;6.60;99.90;;;;;;5050792;28;20182;-81
2021/12/17 15:55:05;;;;;;;8.57;5.20;;;6.70;99.90;;;;;;5049629;28;20628;-80
2021/12/17 15:57:30;;;;;;;11.33;5.70;;;6.60;99.90;;;;;;5048914;28;20188;-78
2021/12/17 15:59:56;;;;;;;10.90;5.90;;;6.60;99.90;;;;;;5048820;28;20209;-81
2021/12/17 16:02:22;;;;;;;8.63;4.90;;;6.60;99.90;;;;;;5063794;28;20735;-79
2021/12/17 16:04:48;;;;;;;7.77;4.73;;;6.70;99.90;;;;;;5062840;28;20297;-79
2021/12/17 16:07:15;;;;;;;7.53;4.23;;;6.60;99.90;;;;;;5045456;28;20205;-80
2021/12/17 16:22:57;;;;;;;10.93;5.60;;;6.70;99.90;;;;;;5068609;28;20771;-79
2021/12/17 16:25:22;;;;;;;7.13;5.17;;;6.70;99.90;;;;;;5051601;28;20272;-80
2021/12/17 16:27:49;;;;;;;10.90;6.20;;;6.70;99.90;;;;;;5065126;28;20224;-78